sensor_id;sensor_type;location;lat;lon;timestamp;temperature;humidity
44729;DHT22;30457;53.590;9.922;2024-02-21T00:00:10;13.10;62.40
44729;DHT22;30457;53.590;9.922;2024-02-21T00:04:36;13.00;62.40
44729;DHT22;30457;53.590;9.922;2024-02-21T00:09:03;13.10;62.50
44729;DHT22;30457;53.590;9.922;2024-02-21T00:13:29;13.00;62.50
44729;DHT22;30457;53.590;9.922;2024-02-21T00:17:55;13.00;62.50
44729;DHT22;30457;53.590;9.922;2024-02-21T00:22:20;13.10;62.70
44729;DHT22;30457;53.590;9.922;2024-02-21T00:26:46;13.00;62.60
44729;DHT22;30457;53.590;9.922;2024-02-21T00:31:12;13.00;62.70
44729;DHT22;30457;53.590;9.922;2024-02-21T00:35:37;13.00;62.80
44729;DHT22;30457;53.590;9.922;2024-02-21T00:40:04;13.00;62.90
44729;DHT22;30457;53.590;9.922;2024-02-21T00:44:30;13.00;62.90
44729;DHT22;30457;53.590;9.922;2024-02-21T00:48:56;13.00;63.00
44729;DHT22;30457;53.590;9.922;2024-02-21T00:53:21;13.00;63.00
44729;DHT22;30457;53.590;9.922;2024-02-21T00:57:47;13.00;63.00
44729;DHT22;30457;53.590;9.922;2024-02-21T01:02:12;13.00;63.00
44729;DHT22;30457;53.590;9.922;2024-02-21T01:06:38;13.00;63.10
44729;DHT22;30457;53.590;9.922;2024-02-21T01:11:04;13.00;63.10
44729;DHT22;30457;53.590;9.922;2024-02-21T01:15:29;13.00;63.10
44729;DHT22;30457;53.590;9.922;2024-02-21T01:19:55;13.10;63.20
44729;DHT22;30457;53.590;9.922;2024-02-21T01:24:20;13.00;63.30
44729;DHT22;30457;53.590;9.922;2024-02-21T01:28:46;13.10;63.40
44729;DHT22;30457;53.590;9.922;2024-02-21T01:33:11;13.10;63.40
44729;DHT22;30457;53.590;9.922;2024-02-21T01:37:37;13.00;63.60
44729;DHT22;30457;53.590;9.922;2024-02-21T01:42:03;13.10;63.60
44729;DHT22;30457;53.590;9.922;2024-02-21T01:46:28;13.00;63.80
44729;DHT22;30457;53.590;9.922;2024-02-21T01:50:56;13.00;64.00
44729;DHT22;30457;53.590;9.922;2024-02-21T01:55:22;13.00;64.00
44729;DHT22;30457;53.590;9.922;2024-02-21T01:59:47;13.00;64.30
44729;DHT22;30457;53.590;9.922;2024-02-21T02:04:13;13.00;64.30
44729;DHT22;30457;53.590;9.922;2024-02-21T02:08:39;13.00;64.60
44729;DHT22;30457;53.590;9.922;2024-02-21T02:13:04;12.90;64.50
44729;DHT22;30457;53.590;9.922;2024-02-21T02:17:30;13.00;64.60
44729;DHT22;30457;53.590;9.922;2024-02-21T02:22:19;12.90;64.60
44729;DHT22;30457;53.590;9.922;2024-02-21T02:26:46;12.90;64.70
44729;DHT22;30457;53.590;9.922;2024-02-21T02:31:12;12.90;64.50
44729;DHT22;30457;53.590;9.922;2024-02-21T02:35:38;12.90;64.60
44729;DHT22;30457;53.590;9.922;2024-02-21T02:40:04;12.90;64.60
44729;DHT22;30457;53.590;9.922;2024-02-21T02:44:29;12.90;65.10
44729;DHT22;30457;53.590;9.922;2024-02-21T02:48:55;12.80;64.70
44729;DHT22;30457;53.590;9.922;2024-02-21T02:53:20;12.80;65.40
44729;DHT22;30457;53.590;9.922;2024-02-21T02:57:46;12.80;65.40
44729;DHT22;30457;53.590;9.922;2024-02-21T03:02:12;12.80;65.20
44729;DHT22;30457;53.590;9.922;2024-02-21T03:06:37;12.80;65.20
44729;DHT22;30457;53.590;9.922;2024-02-21T03:11:03;12.80;65.20
44729;DHT22;30457;53.590;9.922;2024-02-21T03:15:29;12.80;65.20
44729;DHT22;30457;53.590;9.922;2024-02-21T03:19:54;12.80;65.20
44729;DHT22;30457;53.590;9.922;2024-02-21T03:24:25;12.80;65.30
44729;DHT22;30457;53.590;9.922;2024-02-21T03:28:50;12.80;65.30
44729;DHT22;30457;53.590;9.922;2024-02-21T03:33:16;12.90;65.30
44729;DHT22;30457;53.590;9.922;2024-02-21T03:37:41;12.90;65.30
44729;DHT22;30457;53.590;9.922;2024-02-21T03:42:07;12.90;65.10
44729;DHT22;30457;53.590;9.922;2024-02-21T03:46:33;12.90;65.10
44729;DHT22;30457;53.590;9.922;2024-02-21T03:50:58;13.00;65.10
44729;DHT22;30457;53.590;9.922;2024-02-21T03:55:24;13.00;65.00
44729;DHT22;30457;53.590;9.922;2024-02-21T03:59:50;13.00;65.00
44729;DHT22;30457;53.590;9.922;2024-02-21T04:04:16;13.00;65.20
44729;DHT22;30457;53.590;9.922;2024-02-21T04:08:42;13.00;65.00
44729;DHT22;30457;53.590;9.922;2024-02-21T04:13:07;13.00;65.20
44729;DHT22;30457;53.590;9.922;2024-02-21T04:17:33;13.00;65.10
44729;DHT22;30457;53.590;9.922;2024-02-21T04:21:59;13.00;65.10
44729;DHT22;30457;53.590;9.922;2024-02-21T04:26:25;13.00;65.20
44729;DHT22;30457;53.590;9.922;2024-02-21T04:30:50;13.00;65.30
44729;DHT22;30457;53.590;9.922;2024-02-21T04:35:16;12.90;65.20
44729;DHT22;30457;53.590;9.922;2024-02-21T04:39:42;12.90;65.20
44729;DHT22;30457;53.590;9.922;2024-02-21T04:44:07;12.90;65.30
44729;DHT22;30457;53.590;9.922;2024-02-21T04:48:34;12.90;65.30
44729;DHT22;30457;53.590;9.922;2024-02-21T04:52:59;12.90;65.50
44729;DHT22;30457;53.590;9.922;2024-02-21T04:57:25;12.90;65.70
44729;DHT22;30457;53.590;9.922;2024-02-21T05:01:50;12.90;65.80
44729;DHT22;30457;53.590;9.922;2024-02-21T05:06:16;12.80;65.80
44729;DHT22;30457;53.590;9.922;2024-02-21T05:10:42;12.80;65.80
44729;DHT22;30457;53.590;9.922;2024-02-21T05:15:08;12.80;66.10
44729;DHT22;30457;53.590;9.922;2024-02-21T05:19:33;12.80;66.40
44729;DHT22;30457;53.590;9.922;2024-02-21T05:23:59;12.80;66.30
44729;DHT22;30457;53.590;9.922;2024-02-21T05:28:25;12.70;66.30
44729;DHT22;30457;53.590;9.922;2024-02-21T05:32:50;12.70;66.30
44729;DHT22;30457;53.590;9.922;2024-02-21T05:37:16;12.70;66.30
44729;DHT22;30457;53.590;9.922;2024-02-21T05:41:42;12.70;66.50
44729;DHT22;30457;53.590;9.922;2024-02-21T05:46:07;12.70;67.30
44729;DHT22;30457;53.590;9.922;2024-02-21T05:50:33;12.70;66.60
44729;DHT22;30457;53.590;9.922;2024-02-21T05:54:58;12.70;66.50
44729;DHT22;30457;53.590;9.922;2024-02-21T05:59:24;12.70;66.50
44729;DHT22;30457;53.590;9.922;2024-02-21T06:03:49;12.70;66.60
44729;DHT22;30457;53.590;9.922;2024-02-21T06:08:15;12.70;66.60
44729;DHT22;30457;53.590;9.922;2024-02-21T06:12:40;12.70;66.70
44729;DHT22;30457;53.590;9.922;2024-02-21T06:17:06;12.80;66.90
44729;DHT22;30457;53.590;9.922;2024-02-21T06:21:31;12.70;67.00
44729;DHT22;30457;53.590;9.922;2024-02-21T06:25:57;12.80;67.00
44729;DHT22;30457;53.590;9.922;2024-02-21T06:30:22;12.80;67.10
44729;DHT22;30457;53.590;9.922;2024-02-21T06:34:48;12.80;67.10
44729;DHT22;30457;53.590;9.922;2024-02-21T06:39:14;12.80;67.00
44729;DHT22;30457;53.590;9.922;2024-02-21T06:43:39;12.80;67.10
44729;DHT22;30457;53.590;9.922;2024-02-21T06:48:05;12.80;67.20
44729;DHT22;30457;53.590;9.922;2024-02-21T06:52:30;12.70;67.20
44729;DHT22;30457;53.590;9.922;2024-02-21T06:56:56;12.80;67.10
44729;DHT22;30457;53.590;9.922;2024-02-21T07:01:22;12.80;67.00
44729;DHT22;30457;53.590;9.922;2024-02-21T07:05:47;12.80;67.00
44729;DHT22;30457;53.590;9.922;2024-02-21T07:10:13;12.80;66.80
44729;DHT22;30457;53.590;9.922;2024-02-21T07:14:38;12.90;67.00
44729;DHT22;30457;53.590;9.922;2024-02-21T07:19:04;12.90;67.10
44729;DHT22;30457;53.590;9.922;2024-02-21T07:23:30;12.90;66.90
44729;DHT22;30457;53.590;9.922;2024-02-21T07:27:56;12.90;66.90
44729;DHT22;30457;53.590;9.922;2024-02-21T07:32:21;12.90;66.90
44729;DHT22;30457;53.590;9.922;2024-02-21T07:36:47;12.90;66.80
44729;DHT22;30457;53.590;9.922;2024-02-21T07:41:12;12.90;66.90
44729;DHT22;30457;53.590;9.922;2024-02-21T07:45:38;12.90;66.70
44729;DHT22;30457;53.590;9.922;2024-02-21T07:50:05;12.90;67.10
44729;DHT22;30457;53.590;9.922;2024-02-21T07:54:30;12.90;67.10
44729;DHT22;30457;53.590;9.922;2024-02-21T07:58:56;12.90;67.10
44729;DHT22;30457;53.590;9.922;2024-02-21T08:03:21;12.90;67.00
44729;DHT22;30457;53.590;9.922;2024-02-21T08:07:48;12.90;67.00
44729;DHT22;30457;53.590;9.922;2024-02-21T08:12:14;12.90;66.70
44729;DHT22;30457;53.590;9.922;2024-02-21T08:16:39;12.90;66.70
44729;DHT22;30457;53.590;9.922;2024-02-21T08:21:05;12.90;66.60
44729;DHT22;30457;53.590;9.922;2024-02-21T08:25:30;13.00;66.70
44729;DHT22;30457;53.590;9.922;2024-02-21T08:29:56;13.00;66.60
44729;DHT22;30457;53.590;9.922;2024-02-21T08:34:21;13.00;66.60
44729;DHT22;30457;53.590;9.922;2024-02-21T08:38:47;13.10;66.70
44729;DHT22;30457;53.590;9.922;2024-02-21T08:43:12;13.10;66.70
44729;DHT22;30457;53.590;9.922;2024-02-21T08:47:41;13.20;66.60
44729;DHT22;30457;53.590;9.922;2024-02-21T08:52:07;13.20;66.50
44729;DHT22;30457;53.590;9.922;2024-02-21T08:56:36;13.20;67.10
44729;DHT22;30457;53.590;9.922;2024-02-21T09:01:01;13.20;66.40
44729;DHT22;30457;53.590;9.922;2024-02-21T09:05:27;13.20;66.40
44729;DHT22;30457;53.590;9.922;2024-02-21T09:09:52;13.20;66.20
44729;DHT22;30457;53.590;9.922;2024-02-21T09:14:18;13.30;66.20
44729;DHT22;30457;53.590;9.922;2024-02-21T09:18:43;13.30;66.00
44729;DHT22;30457;53.590;9.922;2024-02-21T09:23:09;13.30;65.90
44729;DHT22;30457;53.590;9.922;2024-02-21T09:27:34;13.30;65.80
44729;DHT22;30457;53.590;9.922;2024-02-21T09:32:00;13.30;65.40
44729;DHT22;30457;53.590;9.922;2024-02-21T09:36:26;13.30;65.60
44729;DHT22;30457;53.590;9.922;2024-02-21T09:40:59;13.30;65.80
44729;DHT22;30457;53.590;9.922;2024-02-21T09:45:26;13.30;65.80
44729;DHT22;30457;53.590;9.922;2024-02-21T09:49:52;13.30;65.60
44729;DHT22;30457;53.590;9.922;2024-02-21T09:54:18;13.30;65.60
44729;DHT22;30457;53.590;9.922;2024-02-21T09:58:44;13.30;66.00
44729;DHT22;30457;53.590;9.922;2024-02-21T10:03:09;13.30;66.10
44729;DHT22;30457;53.590;9.922;2024-02-21T10:07:35;13.40;66.10
44729;DHT22;30457;53.590;9.922;2024-02-21T10:12:08;13.30;66.10
44729;DHT22;30457;53.590;9.922;2024-02-21T10:16:35;13.40;66.10
44729;DHT22;30457;53.590;9.922;2024-02-21T10:21:08;13.40;66.00
44729;DHT22;30457;53.590;9.922;2024-02-21T10:25:34;13.40;66.10
44729;DHT22;30457;53.590;9.922;2024-02-21T10:30:00;13.40;66.10
44729;DHT22;30457;53.590;9.922;2024-02-21T10:34:26;13.40;66.10
44729;DHT22;30457;53.590;9.922;2024-02-21T10:38:52;13.40;66.20
44729;DHT22;30457;53.590;9.922;2024-02-21T10:43:19;13.40;66.20
44729;DHT22;30457;53.590;9.922;2024-02-21T10:47:48;13.50;66.40
44729;DHT22;30457;53.590;9.922;2024-02-21T10:57:00;13.50;66.20
44729;DHT22;30457;53.590;9.922;2024-02-21T11:01:28;13.50;67.10
44729;DHT22;30457;53.590;9.922;2024-02-21T11:05:57;13.50;66.10
44729;DHT22;30457;53.590;9.922;2024-02-21T11:10:24;13.50;66.00
44729;DHT22;30457;53.590;9.922;2024-02-21T11:14:49;13.60;65.20
44729;DHT22;30457;53.590;9.922;2024-02-21T11:19:21;13.50;65.70
44729;DHT22;30457;53.590;9.922;2024-02-21T11:23:56;13.60;65.90
44729;DHT22;30457;53.590;9.922;2024-02-21T11:28:25;13.50;65.80
44729;DHT22;30457;53.590;9.922;2024-02-21T11:33:01;13.60;65.60
44729;DHT22;30457;53.590;9.922;2024-02-21T11:37:32;13.60;64.80
44729;DHT22;30457;53.590;9.922;2024-02-21T11:42:06;13.50;65.50
44729;DHT22;30457;53.590;9.922;2024-02-21T11:46:33;13.50;65.50
44729;DHT22;30457;53.590;9.922;2024-02-21T11:50:58;13.50;65.70
44729;DHT22;30457;53.590;9.922;2024-02-21T11:55:26;13.50;65.50
44729;DHT22;30457;53.590;9.922;2024-02-21T11:59:51;13.50;65.20
44729;DHT22;30457;53.590;9.922;2024-02-21T12:04:20;13.50;65.30
44729;DHT22;30457;53.590;9.922;2024-02-21T12:08:47;13.50;65.20
44729;DHT22;30457;53.590;9.922;2024-02-21T12:13:12;13.50;65.10
44729;DHT22;30457;53.590;9.922;2024-02-21T12:17:39;13.50;65.20
44729;DHT22;30457;53.590;9.922;2024-02-21T12:22:05;13.50;65.20
44729;DHT22;30457;53.590;9.922;2024-02-21T12:26:34;13.50;65.10
44729;DHT22;30457;53.590;9.922;2024-02-21T12:31:00;13.50;64.90
44729;DHT22;30457;53.590;9.922;2024-02-21T12:35:26;13.50;64.90
44729;DHT22;30457;53.590;9.922;2024-02-21T12:39:51;13.50;64.80
44729;DHT22;30457;53.590;9.922;2024-02-21T12:44:17;13.50;64.80
44729;DHT22;30457;53.590;9.922;2024-02-21T12:48:43;13.50;64.60
44729;DHT22;30457;53.590;9.922;2024-02-21T12:53:09;13.40;64.60
44729;DHT22;30457;53.590;9.922;2024-02-21T12:57:34;13.50;64.80
44729;DHT22;30457;53.590;9.922;2024-02-21T13:02:00;13.40;64.70
44729;DHT22;30457;53.590;9.922;2024-02-21T13:06:26;13.40;64.70
44729;DHT22;30457;53.590;9.922;2024-02-21T13:10:51;13.40;64.70
44729;DHT22;30457;53.590;9.922;2024-02-21T13:15:17;13.40;65.60
44729;DHT22;30457;53.590;9.922;2024-02-21T13:19:43;13.50;65.10
44729;DHT22;30457;53.590;9.922;2024-02-21T13:24:08;13.50;65.20
44729;DHT22;30457;53.590;9.922;2024-02-21T13:28:34;13.60;65.10
44729;DHT22;30457;53.590;9.922;2024-02-21T13:32:59;13.60;65.00
44729;DHT22;30457;53.590;9.922;2024-02-21T13:37:26;13.60;64.90
44729;DHT22;30457;53.590;9.922;2024-02-21T13:41:52;13.70;65.10
44729;DHT22;30457;53.590;9.922;2024-02-21T13:46:17;13.70;65.10
44729;DHT22;30457;53.590;9.922;2024-02-21T13:50:43;13.80;65.00
44729;DHT22;30457;53.590;9.922;2024-02-21T13:55:09;13.80;64.80
44729;DHT22;30457;53.590;9.922;2024-02-21T13:59:34;13.90;64.60
44729;DHT22;30457;53.590;9.922;2024-02-21T14:04:00;14.00;64.60
44729;DHT22;30457;53.590;9.922;2024-02-21T14:08:25;14.00;64.60
44729;DHT22;30457;53.590;9.922;2024-02-21T14:12:51;14.10;64.70
44729;DHT22;30457;53.590;9.922;2024-02-21T14:17:16;14.20;64.40
44729;DHT22;30457;53.590;9.922;2024-02-21T14:21:42;14.20;63.80
44729;DHT22;30457;53.590;9.922;2024-02-21T14:26:07;14.20;63.90
44729;DHT22;30457;53.590;9.922;2024-02-21T14:30:33;14.30;63.90
44729;DHT22;30457;53.590;9.922;2024-02-21T14:34:59;14.30;63.30
44729;DHT22;30457;53.590;9.922;2024-02-21T14:39:24;14.40;62.80
44729;DHT22;30457;53.590;9.922;2024-02-21T14:43:50;14.40;62.70
44729;DHT22;30457;53.590;9.922;2024-02-21T14:48:17;14.40;62.60
44729;DHT22;30457;53.590;9.922;2024-02-21T14:52:42;14.50;62.30
44729;DHT22;30457;53.590;9.922;2024-02-21T14:57:09;14.40;62.00
44729;DHT22;30457;53.590;9.922;2024-02-21T15:01:38;14.50;61.80
44729;DHT22;30457;53.590;9.922;2024-02-21T15:06:04;14.50;61.30
44729;DHT22;30457;53.590;9.922;2024-02-21T15:10:29;14.50;61.30
44729;DHT22;30457;53.590;9.922;2024-02-21T15:14:55;14.40;60.90
44729;DHT22;30457;53.590;9.922;2024-02-21T15:19:20;14.40;60.80
44729;DHT22;30457;53.590;9.922;2024-02-21T15:23:46;14.40;60.70
44729;DHT22;30457;53.590;9.922;2024-02-21T15:28:11;14.40;60.80
44729;DHT22;30457;53.590;9.922;2024-02-21T15:32:38;14.30;60.80
44729;DHT22;30457;53.590;9.922;2024-02-21T15:37:04;14.30;60.60
44729;DHT22;30457;53.590;9.922;2024-02-21T15:41:30;14.30;60.60
44729;DHT22;30457;53.590;9.922;2024-02-21T15:45:56;14.30;60.40
44729;DHT22;30457;53.590;9.922;2024-02-21T15:50:21;14.30;60.30
44729;DHT22;30457;53.590;9.922;2024-02-21T15:54:47;14.20;60.00
44729;DHT22;30457;53.590;9.922;2024-02-21T15:59:13;14.20;60.00
44729;DHT22;30457;53.590;9.922;2024-02-21T16:03:38;14.20;59.90
44729;DHT22;30457;53.590;9.922;2024-02-21T16:08:06;14.20;59.80
44729;DHT22;30457;53.590;9.922;2024-02-21T16:12:32;14.10;59.60
44729;DHT22;30457;53.590;9.922;2024-02-21T16:16:57;14.10;59.50
44729;DHT22;30457;53.590;9.922;2024-02-21T16:21:23;14.00;59.50
44729;DHT22;30457;53.590;9.922;2024-02-21T16:25:49;14.00;59.40
44729;DHT22;30457;53.590;9.922;2024-02-21T16:30:15;14.00;59.40
44729;DHT22;30457;53.590;9.922;2024-02-21T16:34:42;13.90;59.40
44729;DHT22;30457;53.590;9.922;2024-02-21T16:39:07;13.90;59.40
44729;DHT22;30457;53.590;9.922;2024-02-21T16:43:37;13.90;59.40
44729;DHT22;30457;53.590;9.922;2024-02-21T16:48:03;13.80;59.30
44729;DHT22;30457;53.590;9.922;2024-02-21T16:52:31;13.80;59.30
44729;DHT22;30457;53.590;9.922;2024-02-21T16:56:57;13.80;59.20
44729;DHT22;30457;53.590;9.922;2024-02-21T17:01:22;13.80;59.20
44729;DHT22;30457;53.590;9.922;2024-02-21T17:05:48;13.70;59.10
44729;DHT22;30457;53.590;9.922;2024-02-21T17:10:14;13.70;59.00
44729;DHT22;30457;53.590;9.922;2024-02-21T17:14:39;13.70;59.10
44729;DHT22;30457;53.590;9.922;2024-02-21T17:19:05;13.60;59.00
44729;DHT22;30457;53.590;9.922;2024-02-21T17:23:30;13.60;59.10
44729;DHT22;30457;53.590;9.922;2024-02-21T17:27:57;13.60;59.10
44729;DHT22;30457;53.590;9.922;2024-02-21T17:32:23;13.60;59.00
44729;DHT22;30457;53.590;9.922;2024-02-21T17:36:48;13.50;59.10
44729;DHT22;30457;53.590;9.922;2024-02-21T17:41:14;13.50;59.00
44729;DHT22;30457;53.590;9.922;2024-02-21T17:45:40;13.50;59.00
44729;DHT22;30457;53.590;9.922;2024-02-21T17:50:06;13.50;59.10
44729;DHT22;30457;53.590;9.922;2024-02-21T17:54:32;13.40;59.20
44729;DHT22;30457;53.590;9.922;2024-02-21T17:58:58;13.40;59.20
44729;DHT22;30457;53.590;9.922;2024-02-21T18:03:23;13.40;59.20
44729;DHT22;30457;53.590;9.922;2024-02-21T18:07:53;13.40;59.30
44729;DHT22;30457;53.590;9.922;2024-02-21T18:12:19;13.30;59.30
44729;DHT22;30457;53.590;9.922;2024-02-21T18:16:44;13.30;59.20
44729;DHT22;30457;53.590;9.922;2024-02-21T18:21:10;13.30;59.30
44729;DHT22;30457;53.590;9.922;2024-02-21T18:25:36;13.30;59.30
44729;DHT22;30457;53.590;9.922;2024-02-21T18:30:01;13.30;59.50
44729;DHT22;30457;53.590;9.922;2024-02-21T18:34:28;13.30;59.30
44729;DHT22;30457;53.590;9.922;2024-02-21T18:38:53;13.20;59.20
44729;DHT22;30457;53.590;9.922;2024-02-21T18:43:19;13.20;59.30
44729;DHT22;30457;53.590;9.922;2024-02-21T18:47:45;13.20;59.30
44729;DHT22;30457;53.590;9.922;2024-02-21T18:52:11;13.20;59.20
44729;DHT22;30457;53.590;9.922;2024-02-21T18:56:36;13.20;59.30
44729;DHT22;30457;53.590;9.922;2024-02-21T19:01:02;13.10;59.20
44729;DHT22;30457;53.590;9.922;2024-02-21T19:05:28;13.10;59.20
44729;DHT22;30457;53.590;9.922;2024-02-21T19:09:54;13.10;59.30
44729;DHT22;30457;53.590;9.922;2024-02-21T19:14:19;13.10;59.30
44729;DHT22;30457;53.590;9.922;2024-02-21T19:18:45;13.10;59.30
44729;DHT22;30457;53.590;9.922;2024-02-21T19:23:12;13.00;59.30
44729;DHT22;30457;53.590;9.922;2024-02-21T19:27:41;13.00;59.30
44729;DHT22;30457;53.590;9.922;2024-02-21T19:32:06;13.00;59.40
44729;DHT22;30457;53.590;9.922;2024-02-21T19:36:32;13.00;59.30
44729;DHT22;30457;53.590;9.922;2024-02-21T19:40:58;13.00;59.30
44729;DHT22;30457;53.590;9.922;2024-02-21T19:45:24;13.00;59.30
44729;DHT22;30457;53.590;9.922;2024-02-21T19:49:52;13.00;59.30
44729;DHT22;30457;53.590;9.922;2024-02-21T19:54:18;13.00;59.50
44729;DHT22;30457;53.590;9.922;2024-02-21T19:58:44;13.00;59.40
44729;DHT22;30457;53.590;9.922;2024-02-21T20:03:10;13.00;59.20
44729;DHT22;30457;53.590;9.922;2024-02-21T20:07:36;13.00;59.20
44729;DHT22;30457;53.590;9.922;2024-02-21T20:12:02;13.00;59.20
44729;DHT22;30457;53.590;9.922;2024-02-21T20:16:29;13.00;59.20
44729;DHT22;30457;53.590;9.922;2024-02-21T20:20:55;13.10;59.10
44729;DHT22;30457;53.590;9.922;2024-02-21T20:25:20;13.10;59.00
44729;DHT22;30457;53.590;9.922;2024-02-21T20:29:46;13.10;59.10
44729;DHT22;30457;53.590;9.922;2024-02-21T20:34:12;13.10;59.00
44729;DHT22;30457;53.590;9.922;2024-02-21T20:38:38;13.10;59.10
44729;DHT22;30457;53.590;9.922;2024-02-21T20:43:04;13.10;59.30
44729;DHT22;30457;53.590;9.922;2024-02-21T20:47:30;13.00;59.30
44729;DHT22;30457;53.590;9.922;2024-02-21T20:51:55;13.00;59.40
44729;DHT22;30457;53.590;9.922;2024-02-21T20:56:21;13.00;59.50
44729;DHT22;30457;53.590;9.922;2024-02-21T21:00:47;13.00;59.60
44729;DHT22;30457;53.590;9.922;2024-02-21T21:05:13;12.90;59.60
44729;DHT22;30457;53.590;9.922;2024-02-21T21:09:38;12.90;59.70
44729;DHT22;30457;53.590;9.922;2024-02-21T21:14:05;12.90;59.80
44729;DHT22;30457;53.590;9.922;2024-02-21T21:18:31;12.90;60.00
44729;DHT22;30457;53.590;9.922;2024-02-21T21:22:59;12.80;60.00
44729;DHT22;30457;53.590;9.922;2024-02-21T21:27:25;12.80;60.00
44729;DHT22;30457;53.590;9.922;2024-02-21T21:31:52;12.80;60.30
44729;DHT22;30457;53.590;9.922;2024-02-21T21:36:17;12.80;60.30
44729;DHT22;30457;53.590;9.922;2024-02-21T21:40:43;12.70;60.30
44729;DHT22;30457;53.590;9.922;2024-02-21T21:45:11;12.70;60.20
44729;DHT22;30457;53.590;9.922;2024-02-21T21:49:36;12.70;60.30
44729;DHT22;30457;53.590;9.922;2024-02-21T21:54:02;12.60;60.30
44729;DHT22;30457;53.590;9.922;2024-02-21T21:58:30;12.70;60.50
44729;DHT22;30457;53.590;9.922;2024-02-21T22:02:56;12.60;60.40
44729;DHT22;30457;53.590;9.922;2024-02-21T22:07:21;12.60;60.40
44729;DHT22;30457;53.590;9.922;2024-02-21T22:11:47;12.60;60.40
44729;DHT22;30457;53.590;9.922;2024-02-21T22:16:13;12.60;60.30
44729;DHT22;30457;53.590;9.922;2024-02-21T22:20:38;12.60;60.30
44729;DHT22;30457;53.590;9.922;2024-02-21T22:25:04;12.60;60.50
44729;DHT22;30457;53.590;9.922;2024-02-21T22:29:30;12.50;60.50
44729;DHT22;30457;53.590;9.922;2024-02-21T22:33:56;12.50;60.80
44729;DHT22;30457;53.590;9.922;2024-02-21T22:38:22;12.50;60.70
44729;DHT22;30457;53.590;9.922;2024-02-21T22:42:48;12.50;60.80
44729;DHT22;30457;53.590;9.922;2024-02-21T22:47:14;12.50;61.00
44729;DHT22;30457;53.590;9.922;2024-02-21T22:51:39;12.40;60.90
44729;DHT22;30457;53.590;9.922;2024-02-21T22:56:05;12.40;61.00
44729;DHT22;30457;53.590;9.922;2024-02-21T23:00:31;12.40;61.00
44729;DHT22;30457;53.590;9.922;2024-02-21T23:04:57;12.40;61.20
44729;DHT22;30457;53.590;9.922;2024-02-21T23:09:22;12.40;61.40
44729;DHT22;30457;53.590;9.922;2024-02-21T23:13:49;12.40;61.50
44729;DHT22;30457;53.590;9.922;2024-02-21T23:18:14;12.30;61.50
44729;DHT22;30457;53.590;9.922;2024-02-21T23:22:41;12.40;61.60
44729;DHT22;30457;53.590;9.922;2024-02-21T23:27:07;12.40;61.70
44729;DHT22;30457;53.590;9.922;2024-02-21T23:31:33;12.30;61.80
44729;DHT22;30457;53.590;9.922;2024-02-21T23:36:02;12.30;61.90
44729;DHT22;30457;53.590;9.922;2024-02-21T23:40:27;12.30;62.00
44729;DHT22;30457;53.590;9.922;2024-02-21T23:44:53;12.20;62.10
44729;DHT22;30457;53.590;9.922;2024-02-21T23:49:20;12.20;62.30
44729;DHT22;30457;53.590;9.922;2024-02-21T23:53:47;12.20;62.30
44729;DHT22;30457;53.590;9.922;2024-02-21T23:58:13;12.20;62.50
